CheckWX is a tool to help pilots better visualize weather data.  It is not intended as a substitute for an official pre-flight weather briefing.

03:22:50 UTC

KINW METAR
Winslow-Lindbergh Regional Airport
Winslow, Arizona, USA
Current

27 mins ago

KINW 270256Z AUTO 19010KT 10SM CLR 16/M02 A2989 RMK AO2 SLP071 T01611022 53009
Observed
May-27 @ 02:56 UTC
Wind
  • 190° at 10 KTS
Visibility
10 SM
Flight Rules
VFR
Cloud Levels
  • Clear skies
Temperature
16°C / 61°F
Dewpoint
-2°C / 28°F
Humidity
29%
Altimeter
29.89" Hg
Pressure
1012.22 hPa
Previous

1 hour ago

KINW 270156Z AUTO 21017G25KT 10SM CLR 18/M04 A2987 RMK AO2 PK WND 19029/0107 SLP068 T01831039
Observed
May-27 @ 01:56 UTC
Wind
  • 210° at 17 KTS
  • Gusting to 25 KTS
Visibility
10 SM
Flight Rules
VFR
Cloud Levels
  • Clear skies
Temperature
18°C / 64°F
Dewpoint
-4°C / 25°F
Humidity
22%
Altimeter
29.87" Hg
Pressure
1011.52 hPa
Previous

2 hours ago

KINW 270056Z AUTO 22017G27KT 10SM CLR 21/M02 A2987 RMK AO2 PK WND 20031/0023 SLP068 T02061022
Observed
May-27 @ 00:56 UTC
Wind
  • 220° at 17 KTS
  • Gusting to 27 KTS
Visibility
10 SM
Flight Rules
VFR
Cloud Levels
  • Clear skies
Temperature
21°C / 70°F
Dewpoint
-2°C / 28°F
Humidity
21%
Altimeter
29.87" Hg
Pressure
1011.52 hPa